MET'MAP v2.0
soon released !

Expected late october,
this new version will be
more efficient, smarter,
and hosted on a brand new
server x3 powerfull...
...and still free !


Not compatible ?
Try the mobile version !

LOG IN : | Subscribe | Disclaimer | Who is Orbifly ? |
ICAO code :

TAF - DAUA Touat Cheikh Sidi Mohamed Belk - 02 Apr 2020 15:16 UTC - Data Source NOAA   


- Airport Elevation : 919 ft
- IATA code : AZR
- No reported NOTAMs.


DAUA - Touat Cheikh Sidi Mohamed Belk

Latest METAR recorded : 2015/08/11 08:05 DAUA 110805Z 14005KT 0800 BLDU NSC 35/06 Q1013
TAF TAF DAUA
Valid from the 02 at 12:00 until the 03 at 12:00 UTC


021100Z 0212/0312 26024KT 8000 NSC
TEMPO 0212/0218 3000 DRSA
BECMG 0218/0221 26014KT
PROB30
TEMPO 0218/0224 4000 HZ
BECMG 0305/0308 01017KT 5000 DRSA
TEMPO 0305/0312 01020G35KT 0800 BLSA

Source NOAA


MET'MAP, your aeronautical weather chart ! - Copyright ORBIFLY December 2007

Programming & Development : Alexandra Zaïnal
Co-Developer : Marc-Olivier Méhu
Technical & hardware support : Manuel Goepfert
Concept & Financing : Baudouin d'Aumeries